createdAt,value
2019-03-27T00:00:55.360Z,0.00
2019-03-27T00:02:00.893Z,0.00
2019-03-27T00:03:06.379Z,0.00
2019-03-27T00:04:11.890Z,0.00
2019-03-27T00:05:17.403Z,0.00
2019-03-27T00:06:22.910Z,0.00
2019-03-27T00:07:28.430Z,0.00
2019-03-27T00:08:33.923Z,0.00
2019-03-27T00:09:39.436Z,0.00
2019-03-27T00:10:44.941Z,0.00
2019-03-27T00:11:50.453Z,0.00
2019-03-27T00:12:55.954Z,0.00
2019-03-27T00:14:01.463Z,0.00
2019-03-27T00:15:13.391Z,0.00
2019-03-27T00:16:12.484Z,0.00
2019-03-27T00:17:18.006Z,0.00
2019-03-27T00:18:23.512Z,0.00
2019-03-27T00:19:29.020Z,0.00
2019-03-27T00:20:34.517Z,0.00
2019-03-27T00:21:40.027Z,0.00
2019-03-27T00:22:45.535Z,0.00
2019-03-27T00:23:51.043Z,0.00
2019-03-27T00:24:56.549Z,0.00
2019-03-27T00:26:02.074Z,0.00
2019-03-27T00:27:07.569Z,0.00
2019-03-27T00:28:13.075Z,0.00
2019-03-27T00:29:18.585Z,0.00
2019-03-27T00:30:24.093Z,0.00
2019-03-27T00:31:29.598Z,0.00
2019-03-27T00:32:35.115Z,0.00
2019-03-27T00:33:40.614Z,0.00
2019-03-27T00:34:46.137Z,0.00
2019-03-27T00:35:51.641Z,0.00
2019-03-27T00:36:57.145Z,0.00
2019-03-27T00:38:02.679Z,0.00
2019-03-27T00:39:08.158Z,0.00
2019-03-27T00:40:13.668Z,0.00
2019-03-27T00:41:19.171Z,0.00
2019-03-27T00:42:24.682Z,0.00
2019-03-27T00:43:30.192Z,0.00
2019-03-27T00:44:35.701Z,0.00
2019-03-27T00:45:41.208Z,0.00
2019-03-27T00:46:46.723Z,0.00
2019-03-27T00:47:52.229Z,0.00
2019-03-27T00:48:57.730Z,0.00
2019-03-27T00:50:03.238Z,0.00
2019-03-27T00:51:08.752Z,0.00
2019-03-27T00:52:14.262Z,0.00
2019-03-27T00:53:19.764Z,0.00
2019-03-27T00:54:25.270Z,0.00
2019-03-27T00:55:30.782Z,0.00
2019-03-27T00:56:36.291Z,0.00
2019-03-27T00:57:41.799Z,0.00
2019-03-27T00:58:47.307Z,0.00
2019-03-27T00:59:52.829Z,0.00
2019-03-27T01:00:58.321Z,0.00
2019-03-27T01:02:03.833Z,0.00
2019-03-27T01:03:09.338Z,0.00
2019-03-27T01:04:14.842Z,0.00
2019-03-27T01:05:20.350Z,0.00
2019-03-27T01:06:25.859Z,0.00
2019-03-27T01:07:31.370Z,0.00
2019-03-27T01:08:36.884Z,0.00
2019-03-27T01:09:42.386Z,0.00
2019-03-27T01:10:47.892Z,0.00
2019-03-27T01:11:53.399Z,0.00
2019-03-27T01:12:58.921Z,0.00
2019-03-27T01:14:04.428Z,0.00
2019-03-27T01:15:09.934Z,0.00
2019-03-27T01:16:15.433Z,0.00
2019-03-27T01:17:20.936Z,0.00
2019-03-27T01:18:26.451Z,0.00
2019-03-27T01:19:31.961Z,0.00
2019-03-27T01:20:37.467Z,0.00
2019-03-27T01:21:42.970Z,0.00
2019-03-27T01:22:48.483Z,0.00
2019-03-27T01:23:53.992Z,0.00
2019-03-27T01:24:59.497Z,0.00
2019-03-27T01:26:05.002Z,0.00
2019-03-27T01:27:10.509Z,0.00
2019-03-27T01:28:16.024Z,0.00
2019-03-27T01:29:21.525Z,0.00
2019-03-27T01:30:27.038Z,0.00
2019-03-27T01:31:32.539Z,0.00
2019-03-27T01:32:38.054Z,0.00
2019-03-27T01:33:43.557Z,0.00
2019-03-27T01:34:49.064Z,0.00
2019-03-27T01:35:54.569Z,0.00
2019-03-27T01:37:00.098Z,0.00
2019-03-27T01:38:05.606Z,0.00
2019-03-27T01:39:11.096Z,0.00
2019-03-27T01:40:16.605Z,0.00
2019-03-27T01:41:22.112Z,0.00
2019-03-27T01:42:27.618Z,0.00
2019-03-27T01:43:33.126Z,0.00
2019-03-27T01:44:38.629Z,0.00
2019-03-27T01:45:52.848Z,0.00
2019-03-27T01:46:49.649Z,0.00
2019-03-27T01:47:55.158Z,0.00
2019-03-27T01:49:00.667Z,0.00
2019-03-27T01:50:06.179Z,0.00
2019-03-27T01:51:11.690Z,0.00
2019-03-27T01:52:17.188Z,0.00
2019-03-27T01:53:22.694Z,0.00
2019-03-27T01:54:28.199Z,0.00
2019-03-27T01:55:33.708Z,0.00
2019-03-27T01:56:39.218Z,0.00
2019-03-27T01:57:44.741Z,0.00
2019-03-27T01:58:50.241Z,0.00
2019-03-27T01:59:55.740Z,0.00
2019-03-27T02:01:01.253Z,0.00
2019-03-27T02:02:06.752Z,0.00
2019-03-27T02:03:12.260Z,0.00
2019-03-27T02:04:17.770Z,0.00
2019-03-27T02:05:23.280Z,0.00
2019-03-27T02:06:28.782Z,0.00
2019-03-27T02:07:34.290Z,0.00
2019-03-27T02:08:39.795Z,0.00
2019-03-27T02:09:45.303Z,0.00
2019-03-27T02:10:50.811Z,0.00
2019-03-27T02:11:56.324Z,0.00
2019-03-27T02:13:01.831Z,0.00
2019-03-27T02:14:07.336Z,0.00
2019-03-27T02:15:12.852Z,0.00
2019-03-27T02:16:18.344Z,0.00
2019-03-27T02:17:23.869Z,0.00
2019-03-27T02:18:29.360Z,0.00
2019-03-27T02:19:34.869Z,0.00
2019-03-27T02:20:40.371Z,0.00
2019-03-27T02:21:45.887Z,0.00
2019-03-27T02:22:51.398Z,0.00
2019-03-27T02:23:56.896Z,0.00
2019-03-27T02:25:02.413Z,0.00
2019-03-27T02:26:07.915Z,0.00
2019-03-27T02:27:13.420Z,0.00
2019-03-27T02:28:18.929Z,0.00
2019-03-27T02:29:24.446Z,0.00
2019-03-27T02:30:29.941Z,0.00
2019-03-27T02:31:35.453Z,0.00
2019-03-27T02:32:40.954Z,0.00
2019-03-27T02:33:46.474Z,0.00
2019-03-27T02:34:51.971Z,0.00
2019-03-27T02:35:57.486Z,0.00
2019-03-27T02:37:02.989Z,0.00
2019-03-27T02:38:08.493Z,0.00
2019-03-27T02:39:14.010Z,0.00
2019-03-27T02:40:19.517Z,0.00
2019-03-27T02:41:25.024Z,0.00
2019-03-27T02:42:30.543Z,0.00
2019-03-27T02:43:36.028Z,0.00
2019-03-27T02:44:41.535Z,0.00
2019-03-27T02:45:47.042Z,0.00
2019-03-27T02:46:52.555Z,0.00
2019-03-27T02:47:58.074Z,0.00
2019-03-27T02:49:03.562Z,0.00
2019-03-27T02:50:09.079Z,0.00
2019-03-27T02:51:14.634Z,0.00
2019-03-27T02:52:20.089Z,0.00
2019-03-27T02:53:25.593Z,0.00
2019-03-27T02:54:31.095Z,0.00
2019-03-27T02:55:36.609Z,0.00
2019-03-27T02:56:42.113Z,0.00
2019-03-27T02:57:47.636Z,0.00
2019-03-27T02:58:53.139Z,0.00
2019-03-27T02:59:58.649Z,0.00
2019-03-27T03:01:04.210Z,0.00
2019-03-27T03:02:09.646Z,0.00
2019-03-27T03:03:15.157Z,0.00
2019-03-27T03:04:20.663Z,0.00
2019-03-27T03:05:26.185Z,0.00
2019-03-27T03:06:31.681Z,0.00
2019-03-27T03:07:37.190Z,0.00
2019-03-27T03:08:42.696Z,0.00
2019-03-27T03:09:48.197Z,0.00
2019-03-27T03:10:53.740Z,0.00
2019-03-27T03:11:59.221Z,0.00
2019-03-27T03:13:04.724Z,0.00
2019-03-27T03:14:10.230Z,0.00
2019-03-27T03:15:15.737Z,0.00
2019-03-27T03:16:21.247Z,0.00
2019-03-27T03:17:26.764Z,0.00
2019-03-27T03:18:32.255Z,0.00
2019-03-27T03:19:37.762Z,0.00
2019-03-27T03:20:43.273Z,0.00
2019-03-27T03:21:48.784Z,0.00
2019-03-27T03:22:54.286Z,0.00
2019-03-27T03:23:59.794Z,0.00
2019-03-27T03:25:05.306Z,0.00
2019-03-27T03:26:10.819Z,0.00
2019-03-27T03:27:16.317Z,0.00
2019-03-27T03:28:21.825Z,0.00
2019-03-27T03:29:27.333Z,0.00
2019-03-27T03:30:32.893Z,0.00
2019-03-27T03:31:38.355Z,20.00
2019-03-27T03:32:43.851Z,20.00
2019-03-27T03:33:49.367Z,20.00
2019-03-27T03:34:54.870Z,24.00
2019-03-27T03:36:00.372Z,24.00
2019-03-27T03:37:05.886Z,20.00
2019-03-27T03:38:11.406Z,20.00
2019-03-27T03:39:16.901Z,20.00
2019-03-27T03:40:22.407Z,20.00
2019-03-27T03:41:27.915Z,20.00
2019-03-27T03:42:33.421Z,20.00
2019-03-27T03:43:38.932Z,20.00
2019-03-27T03:44:44.429Z,20.00
2019-03-27T03:45:49.950Z,16.00
2019-03-27T03:47:00.030Z,16.00
2019-03-27T03:48:00.949Z,16.00
2019-03-27T03:49:06.464Z,16.00
2019-03-27T03:50:11.980Z,16.00
2019-03-27T03:51:17.494Z,20.00
2019-03-27T03:52:22.982Z,20.00
2019-03-27T03:53:28.485Z,20.00
2019-03-27T03:54:33.993Z,20.00
2019-03-27T03:55:39.502Z,20.00
2019-03-27T03:56:45.006Z,20.00
2019-03-27T03:57:50.510Z,20.00
2019-03-27T03:58:56.026Z,20.00
2019-03-27T04:00:01.602Z,20.00
2019-03-27T04:01:07.040Z,20.00
2019-03-27T04:02:12.543Z,20.00
2019-03-27T04:03:18.045Z,20.00
2019-03-27T04:04:23.578Z,20.00
2019-03-27T04:05:29.062Z,20.00
2019-03-27T04:06:34.566Z,20.00
2019-03-27T04:07:40.082Z,20.00
2019-03-27T04:08:45.581Z,20.00
2019-03-27T04:09:51.098Z,20.00
2019-03-27T04:10:56.596Z,20.00
2019-03-27T04:12:02.100Z,20.00
2019-03-27T04:13:07.609Z,20.00
2019-03-27T04:14:13.116Z,20.00
2019-03-27T04:15:18.627Z,20.00
2019-03-27T04:16:24.134Z,20.00
2019-03-27T04:17:29.633Z,16.00
2019-03-27T04:18:35.154Z,16.00
2019-03-27T04:19:40.649Z,16.00
2019-03-27T04:20:46.158Z,16.00
2019-03-27T04:21:51.675Z,16.00
2019-03-27T04:22:57.172Z,16.00
2019-03-27T04:24:02.680Z,16.00
2019-03-27T04:25:08.186Z,16.00
2019-03-27T04:26:13.696Z,16.00
2019-03-27T04:27:19.202Z,16.00
2019-03-27T04:28:24.705Z,16.00
2019-03-27T04:29:30.216Z,16.00
2019-03-27T04:30:35.723Z,16.00
2019-03-27T04:31:41.263Z,16.00
2019-03-27T04:32:46.732Z,16.00
2019-03-27T04:33:52.249Z,16.00
2019-03-27T04:34:57.746Z,16.00
2019-03-27T04:36:03.253Z,16.00
2019-03-27T04:37:08.775Z,16.00
2019-03-27T04:38:14.276Z,16.00
2019-03-27T04:39:19.780Z,4.00
2019-03-27T04:40:25.801Z,0.00
2019-03-27T04:41:30.787Z,0.00
2019-03-27T04:42:36.300Z,0.00
2019-03-27T04:43:41.806Z,0.00
2019-03-27T04:44:47.308Z,0.00
2019-03-27T04:45:52.820Z,0.00
2019-03-27T04:46:58.352Z,0.00
2019-03-27T04:48:03.831Z,0.00
2019-03-27T04:49:09.340Z,0.00
2019-03-27T04:50:14.849Z,0.00
2019-03-27T04:51:20.350Z,0.00
2019-03-27T04:52:25.858Z,0.00
2019-03-27T04:53:31.374Z,0.00
2019-03-27T04:54:36.892Z,0.00
2019-03-27T04:55:42.386Z,0.00
2019-03-27T04:56:47.887Z,4.00
2019-03-27T04:57:53.391Z,4.00
2019-03-27T04:58:58.909Z,0.00
2019-03-27T05:00:04.412Z,0.00
2019-03-27T05:01:09.918Z,0.00
2019-03-27T05:02:15.422Z,4.00
2019-03-27T05:03:20.939Z,0.00
2019-03-27T05:04:26.444Z,0.00
2019-03-27T05:05:31.933Z,0.00
2019-03-27T05:06:37.448Z,4.00
2019-03-27T05:07:42.958Z,4.00
2019-03-27T05:08:48.464Z,0.00
2019-03-27T05:09:53.968Z,4.00
2019-03-27T05:10:59.514Z,4.00
2019-03-27T05:12:04.980Z,4.00
2019-03-27T05:13:10.492Z,4.00
2019-03-27T05:14:15.998Z,4.00
2019-03-27T05:15:21.505Z,8.00
2019-03-27T05:16:27.014Z,8.00
2019-03-27T05:17:45.322Z,12.00
2019-03-27T05:18:38.028Z,8.00
2019-03-27T05:19:43.537Z,12.00
2019-03-27T05:20:49.046Z,12.00
2019-03-27T05:21:54.556Z,16.00
2019-03-27T05:23:00.051Z,12.00
2019-03-27T05:24:05.561Z,12.00
2019-03-27T05:25:11.075Z,16.00
2019-03-27T05:26:16.578Z,16.00
2019-03-27T05:27:22.090Z,16.00
2019-03-27T05:28:27.590Z,16.00
2019-03-27T05:29:33.096Z,12.00
2019-03-27T05:30:38.605Z,12.00
2019-03-27T05:31:44.127Z,12.00
2019-03-27T05:32:49.668Z,12.00
2019-03-27T05:33:55.181Z,8.00
2019-03-27T05:35:00.685Z,12.00
2019-03-27T05:36:06.170Z,12.00
2019-03-27T05:37:11.691Z,12.00
2019-03-27T05:38:17.175Z,8.00
2019-03-27T05:39:22.701Z,16.00
2019-03-27T05:40:28.195Z,12.00
2019-03-27T05:41:33.726Z,20.00
2019-03-27T05:42:39.189Z,20.00
2019-03-27T05:43:44.685Z,20.00
2019-03-27T05:44:50.210Z,20.00
2019-03-27T05:45:55.707Z,20.00
2019-03-27T05:47:01.210Z,16.00
2019-03-27T05:48:06.719Z,24.00
2019-03-27T05:49:12.227Z,20.00
2019-03-27T05:50:17.743Z,28.00
2019-03-27T05:51:23.233Z,32.00
2019-03-27T05:52:28.749Z,40.00
2019-03-27T05:53:34.253Z,44.00
2019-03-27T05:54:39.761Z,48.00
2019-03-27T05:55:45.271Z,52.00
2019-03-27T05:56:50.782Z,60.00
2019-03-27T05:57:56.284Z,60.00
2019-03-27T05:59:01.790Z,64.00
2019-03-27T06:00:07.305Z,68.00
2019-03-27T06:01:12.806Z,72.00
2019-03-27T06:02:18.314Z,72.00
2019-03-27T06:03:23.817Z,76.00
2019-03-27T06:04:29.328Z,68.00
2019-03-27T06:05:34.833Z,68.00
2019-03-27T06:06:40.347Z,68.00
2019-03-27T06:07:45.862Z,64.00
2019-03-27T06:08:51.362Z,60.00
2019-03-27T06:09:56.866Z,64.00
2019-03-27T06:11:02.371Z,64.00
2019-03-27T06:12:07.878Z,68.00
2019-03-27T06:13:13.386Z,76.00
2019-03-27T06:14:18.899Z,76.00
2019-03-27T06:15:24.398Z,68.00
2019-03-27T06:16:29.905Z,76.00
2019-03-27T06:17:35.414Z,84.00
2019-03-27T06:18:40.923Z,92.00
2019-03-27T06:19:46.428Z,96.00
2019-03-27T06:20:51.935Z,100.00
2019-03-27T06:21:57.451Z,104.00
2019-03-27T06:23:02.950Z,108.00
2019-03-27T06:24:08.463Z,116.00
2019-03-27T06:25:13.964Z,112.00
2019-03-27T06:26:19.475Z,112.00
2019-03-27T06:27:24.978Z,112.00
2019-03-27T06:28:30.489Z,104.00
2019-03-27T06:29:35.992Z,100.00
2019-03-27T06:30:41.507Z,96.00
2019-03-27T06:31:47.008Z,92.00
2019-03-27T06:32:52.523Z,88.00
2019-03-27T06:33:58.028Z,84.00
2019-03-27T06:35:03.539Z,88.00
2019-03-27T06:36:09.046Z,80.00
2019-03-27T06:37:14.551Z,80.00
2019-03-27T06:38:20.056Z,96.00
2019-03-27T06:39:25.610Z,112.00
2019-03-27T06:40:31.068Z,116.00
2019-03-27T06:41:36.569Z,140.00
2019-03-27T06:42:42.089Z,164.00
2019-03-27T06:43:47.593Z,164.00
2019-03-27T06:44:53.115Z,156.00
2019-03-27T06:45:58.670Z,164.00
2019-03-27T06:47:04.119Z,172.00
2019-03-27T06:48:09.618Z,172.00
2019-03-27T06:49:15.127Z,172.00
2019-03-27T06:50:20.648Z,196.00
2019-03-27T06:51:39.206Z,200.00
2019-03-27T06:52:31.656Z,184.00
2019-03-27T06:53:37.164Z,176.00
2019-03-27T06:54:42.678Z,184.00
2019-03-27T06:55:48.183Z,196.00
2019-03-27T06:56:53.687Z,200.00
2019-03-27T06:57:59.216Z,188.00
2019-03-27T06:59:04.707Z,184.00
2019-03-27T07:00:10.219Z,176.00
2019-03-27T07:01:15.725Z,180.00
2019-03-27T07:02:21.230Z,188.00
2019-03-27T07:03:26.737Z,204.00
2019-03-27T07:04:32.254Z,200.00
2019-03-27T07:05:37.758Z,200.00
2019-03-27T07:06:43.259Z,212.00
2019-03-27T07:07:48.776Z,224.00
2019-03-27T07:08:54.284Z,228.00
2019-03-27T07:09:59.786Z,224.00
2019-03-27T07:11:05.296Z,220.00
2019-03-27T07:12:20.940Z,216.00
2019-03-27T07:13:16.306Z,220.00
2019-03-27T07:14:21.816Z,228.00
2019-03-27T07:15:27.326Z,224.00
2019-03-27T07:16:32.830Z,236.00
2019-03-27T07:17:38.349Z,256.00
2019-03-27T07:18:43.847Z,272.00
2019-03-27T07:19:49.358Z,280.00
2019-03-27T07:20:54.869Z,280.00
2019-03-27T07:22:00.374Z,288.00
2019-03-27T07:23:05.881Z,316.00
2019-03-27T07:24:11.393Z,320.00
2019-03-27T07:25:16.899Z,328.00
2019-03-27T07:26:22.407Z,324.00
2019-03-27T07:27:27.916Z,320.00
2019-03-27T07:28:33.424Z,332.00
2019-03-27T07:29:38.925Z,328.00
2019-03-27T07:30:44.446Z,320.00
2019-03-27T07:31:49.949Z,300.00
2019-03-27T07:32:55.464Z,300.00
2019-03-27T07:34:00.966Z,292.00
2019-03-27T07:35:06.521Z,288.00
2019-03-27T07:36:11.988Z,300.00
2019-03-27T07:37:17.505Z,332.00
2019-03-27T07:38:23.003Z,368.00
2019-03-27T07:39:28.505Z,392.00
2019-03-27T07:40:34.016Z,396.00
2019-03-27T07:41:39.526Z,364.00
2019-03-27T07:42:45.033Z,352.00
2019-03-27T07:43:50.539Z,396.00
2019-03-27T07:44:56.054Z,408.00
2019-03-27T07:46:01.558Z,424.00
2019-03-27T07:47:07.071Z,456.00
2019-03-27T07:48:12.578Z,484.00
2019-03-27T07:49:18.084Z,548.00
2019-03-27T07:50:23.594Z,572.00
2019-03-27T07:51:29.103Z,556.00
2019-03-27T07:52:34.605Z,552.00
2019-03-27T07:53:40.114Z,536.00
2019-03-27T07:54:45.629Z,492.00
2019-03-27T07:55:51.141Z,516.00
2019-03-27T07:56:56.642Z,556.00
2019-03-27T07:58:02.146Z,524.00
2019-03-27T07:59:07.662Z,512.00
2019-03-27T08:00:13.178Z,492.00
2019-03-27T08:01:18.670Z,456.00
2019-03-27T08:02:24.182Z,452.00
2019-03-27T08:03:29.704Z,456.00
2019-03-27T08:04:35.205Z,492.00
2019-03-27T08:05:40.708Z,528.00
2019-03-27T08:06:46.223Z,528.00
2019-03-27T08:07:51.726Z,524.00
2019-03-27T08:08:57.238Z,500.00
2019-03-27T08:10:02.742Z,508.00
2019-03-27T08:11:08.260Z,512.00
2019-03-27T08:12:13.817Z,540.00
2019-03-27T08:13:19.273Z,520.00
2019-03-27T08:14:24.790Z,508.00
2019-03-27T08:15:30.300Z,520.00
2019-03-27T08:16:35.802Z,584.00
2019-03-27T08:17:41.318Z,616.00
2019-03-27T08:18:46.818Z,668.00
2019-03-27T08:19:52.324Z,648.00
2019-03-27T08:20:57.835Z,636.00
2019-03-27T08:22:03.351Z,684.00
2019-03-27T08:23:08.859Z,724.00
2019-03-27T08:24:14.368Z,664.00
2019-03-27T08:25:19.876Z,564.00
2019-03-27T08:26:25.406Z,564.00
2019-03-27T08:27:30.892Z,596.00
2019-03-27T08:28:36.398Z,556.00
2019-03-27T08:29:41.911Z,608.00
2019-03-27T08:30:47.414Z,688.00
2019-03-27T08:31:52.920Z,696.00
2019-03-27T08:32:58.442Z,640.00
2019-03-27T08:34:03.950Z,628.00
2019-03-27T08:35:09.451Z,600.00
2019-03-27T08:36:14.965Z,584.00
2019-03-27T08:37:20.472Z,556.00
2019-03-27T08:38:25.978Z,668.00
2019-03-27T08:39:31.494Z,708.00
2019-03-27T08:40:37.002Z,704.00
2019-03-27T08:41:42.511Z,624.00
2019-03-27T08:42:48.015Z,596.00
2019-03-27T08:43:53.529Z,636.00
2019-03-27T08:44:59.042Z,664.00
2019-03-27T08:46:04.543Z,496.00
2019-03-27T08:47:10.046Z,648.00
2019-03-27T08:48:15.560Z,696.00
2019-03-27T08:49:22.423Z,712.00
2019-03-27T08:50:26.580Z,716.00
2019-03-27T08:51:32.092Z,724.00
2019-03-27T08:52:37.599Z,708.00
2019-03-27T08:53:43.115Z,708.00
2019-03-27T08:54:48.620Z,660.00
2019-03-27T08:55:54.127Z,676.00
2019-03-27T08:56:59.643Z,752.00
2019-03-27T08:58:05.149Z,668.00
2019-03-27T08:59:10.661Z,616.00
2019-03-27T09:00:16.164Z,660.00
2019-03-27T09:01:21.680Z,592.00
2019-03-27T09:02:27.193Z,560.00
2019-03-27T09:03:32.698Z,440.00
2019-03-27T09:04:38.216Z,392.00
2019-03-27T09:05:43.726Z,356.00
2019-03-27T09:06:49.225Z,324.00
2019-03-27T09:07:54.731Z,332.00
2019-03-27T09:09:00.243Z,344.00
2019-03-27T09:10:05.754Z,376.00
2019-03-27T09:11:11.268Z,484.00
2019-03-27T09:12:16.763Z,500.00
2019-03-27T09:13:22.280Z,556.00
2019-03-27T09:14:27.792Z,576.00
2019-03-27T09:15:33.303Z,608.00
2019-03-27T09:16:38.803Z,620.00
2019-03-27T09:17:44.316Z,716.00
2019-03-27T09:18:49.833Z,768.00
2019-03-27T09:19:55.342Z,792.00
2019-03-27T09:21:00.846Z,768.00
2019-03-27T09:22:06.359Z,608.00
2019-03-27T09:23:11.874Z,524.00
2019-03-27T09:24:17.383Z,544.00
2019-03-27T09:25:22.884Z,476.00
2019-03-27T09:26:28.407Z,412.00
2019-03-27T09:27:33.908Z,296.00
2019-03-27T09:28:39.423Z,296.00
2019-03-27T09:29:45.005Z,296.00
2019-03-27T09:30:50.435Z,304.00
2019-03-27T09:31:55.948Z,312.00
2019-03-27T09:33:01.459Z,320.00
2019-03-27T09:34:06.965Z,340.00
2019-03-27T09:35:12.500Z,360.00
2019-03-27T09:36:17.988Z,372.00
2019-03-27T09:37:23.496Z,404.00
2019-03-27T09:38:29.006Z,504.00
2019-03-27T09:39:34.516Z,704.00
2019-03-27T09:40:40.027Z,748.00
2019-03-27T09:41:45.544Z,812.00
2019-03-27T09:42:51.050Z,844.00
2019-03-27T09:43:56.551Z,860.00
2019-03-27T09:45:02.068Z,696.00
2019-03-27T09:46:07.574Z,620.00
2019-03-27T09:47:13.096Z,584.00
2019-03-27T09:48:18.594Z,592.00
2019-03-27T09:49:24.104Z,592.00
2019-03-27T09:50:29.643Z,484.00
2019-03-27T09:51:35.124Z,532.00
2019-03-27T09:52:40.631Z,436.00
2019-03-27T09:53:46.145Z,412.00
2019-03-27T09:54:51.648Z,444.00
2019-03-27T09:55:57.160Z,612.00
2019-03-27T09:57:02.677Z,656.00
2019-03-27T09:58:08.186Z,692.00
2019-03-27T09:59:13.691Z,524.00
2019-03-27T10:00:19.211Z,752.00
2019-03-27T10:01:24.732Z,692.00
2019-03-27T10:02:30.224Z,772.00
2019-03-27T10:03:35.734Z,852.00
2019-03-27T10:04:41.242Z,820.00
2019-03-27T10:05:46.756Z,992.00
2019-03-27T10:06:52.265Z,936.00
2019-03-27T10:07:57.773Z,964.00
2019-03-27T10:09:03.284Z,960.00
2019-03-27T10:10:08.795Z,1016.00
2019-03-27T10:11:14.301Z,956.00
2019-03-27T10:12:19.832Z,896.00
2019-03-27T10:13:25.331Z,800.00
2019-03-27T10:14:30.832Z,800.00
2019-03-27T10:15:36.349Z,948.00
2019-03-27T10:16:41.853Z,784.00
2019-03-27T10:17:47.371Z,604.00
2019-03-27T10:18:52.874Z,596.00
2019-03-27T10:20:03.707Z,584.00
2019-03-27T10:21:03.908Z,572.00
2019-03-27T10:22:09.407Z,624.00
2019-03-27T10:23:14.918Z,664.00
2019-03-27T10:24:20.426Z,812.00
2019-03-27T10:25:25.935Z,868.00
2019-03-27T10:26:31.451Z,692.00
2019-03-27T10:27:36.962Z,768.00
2019-03-27T10:28:42.468Z,904.00
2019-03-27T10:29:47.981Z,1064.00
2019-03-27T10:30:53.509Z,1052.00
2019-03-27T10:31:59.003Z,1076.00
2019-03-27T10:33:04.514Z,1092.00
2019-03-27T10:34:10.026Z,1104.00
2019-03-27T10:35:15.541Z,1160.00
2019-03-27T10:36:21.036Z,1012.00
2019-03-27T10:37:26.558Z,1016.00
2019-03-27T10:38:32.063Z,1304.00
2019-03-27T10:39:37.578Z,1300.00
2019-03-27T10:40:43.109Z,1052.00
2019-03-27T10:41:48.608Z,1020.00
2019-03-27T10:42:54.104Z,1164.00
2019-03-27T10:43:59.704Z,952.00
2019-03-27T10:45:05.140Z,1008.00
2019-03-27T10:46:10.641Z,1144.00
2019-03-27T10:47:16.149Z,1140.00
2019-03-27T10:48:21.661Z,1212.00
2019-03-27T10:49:27.179Z,1120.00
2019-03-27T10:50:32.689Z,1112.00
2019-03-27T10:51:38.197Z,1168.00
2019-03-27T10:52:43.709Z,1216.00
2019-03-27T10:53:49.216Z,1240.00
2019-03-27T10:54:54.732Z,1284.00
2019-03-27T10:56:00.237Z,1248.00
2019-03-27T10:57:05.741Z,1200.00
2019-03-27T10:58:11.262Z,1180.00
2019-03-27T10:59:16.775Z,1172.00
2019-03-27T11:00:22.280Z,1220.00
2019-03-27T11:01:27.793Z,1196.00
2019-03-27T11:02:33.310Z,1124.00
2019-03-27T11:03:38.819Z,1016.00
2019-03-27T11:04:44.324Z,916.00
2019-03-27T11:05:49.848Z,876.00
2019-03-27T11:06:55.349Z,876.00
2019-03-27T11:08:00.864Z,888.00
2019-03-27T11:09:06.384Z,868.00
2019-03-27T11:10:11.889Z,888.00
2019-03-27T11:11:17.405Z,932.00
2019-03-27T11:12:22.908Z,932.00
2019-03-27T11:13:28.416Z,916.00
2019-03-27T11:14:38.038Z,912.00
2019-03-27T11:15:39.432Z,968.00
2019-03-27T11:16:44.956Z,1040.00
2019-03-27T11:17:50.458Z,992.00
2019-03-27T11:18:55.977Z,1056.00
2019-03-27T11:20:01.498Z,1268.00
2019-03-27T11:21:06.992Z,1180.00
2019-03-27T11:22:12.528Z,1452.00
2019-03-27T11:23:18.016Z,1552.00
2019-03-27T11:24:23.534Z,1556.00
2019-03-27T11:25:29.045Z,1472.00
2019-03-27T11:26:34.557Z,1164.00
2019-03-27T11:27:40.065Z,1192.00
2019-03-27T11:28:45.572Z,1188.00
2019-03-27T11:29:51.096Z,1184.00
2019-03-27T11:30:56.587Z,1160.00
2019-03-27T11:32:02.108Z,1236.00
2019-03-27T11:33:07.628Z,1352.00
2019-03-27T11:34:13.131Z,1532.00
2019-03-27T11:35:18.644Z,2004.00
2019-03-27T11:36:24.152Z,1976.00
2019-03-27T11:37:29.680Z,2044.00
2019-03-27T11:38:37.551Z,1916.00
2019-03-27T11:39:40.691Z,1632.00
2019-03-27T11:40:46.193Z,1788.00
2019-03-27T11:41:51.705Z,1096.00
2019-03-27T11:42:57.221Z,984.00
2019-03-27T11:44:02.741Z,944.00
2019-03-27T11:45:08.251Z,920.00
2019-03-27T11:46:13.771Z,892.00
2019-03-27T11:47:19.264Z,844.00
2019-03-27T11:48:24.777Z,816.00
2019-03-27T11:49:30.280Z,800.00
2019-03-27T11:50:44.670Z,820.00
2019-03-27T11:51:41.307Z,832.00
2019-03-27T11:52:46.822Z,804.00
2019-03-27T11:53:52.331Z,764.00
2019-03-27T11:54:57.843Z,684.00
2019-03-27T11:56:03.630Z,672.00
2019-03-27T11:57:08.868Z,672.00
2019-03-27T11:58:15.008Z,716.00
2019-03-27T11:59:19.888Z,752.00
2019-03-27T12:00:25.400Z,772.00
2019-03-27T12:01:40.605Z,820.00
2019-03-27T12:02:36.424Z,920.00
2019-03-27T12:03:41.934Z,1044.00
2019-03-27T12:04:47.441Z,1000.00
2019-03-27T12:05:52.961Z,1008.00
2019-03-27T12:06:58.476Z,1088.00
2019-03-27T12:08:03.977Z,1176.00
2019-03-27T12:09:09.493Z,1392.00
2019-03-27T12:10:14.997Z,1568.00
2019-03-27T12:11:20.517Z,1860.00
2019-03-27T12:12:26.021Z,2020.00
2019-03-27T12:13:31.542Z,2048.00
2019-03-27T12:14:37.057Z,2164.00
2019-03-27T12:15:42.556Z,1960.00
2019-03-27T12:16:50.009Z,1776.00
2019-03-27T12:17:53.589Z,1616.00
2019-03-27T12:18:59.093Z,1576.00
2019-03-27T12:20:04.623Z,1652.00
2019-03-27T12:21:10.112Z,1452.00
2019-03-27T12:22:15.625Z,1168.00
2019-03-27T12:23:21.130Z,1200.00
2019-03-27T12:24:28.637Z,1256.00
2019-03-27T12:25:32.169Z,1328.00
2019-03-27T12:26:37.668Z,1300.00
2019-03-27T12:27:43.186Z,1236.00
2019-03-27T12:28:48.703Z,1232.00
2019-03-27T12:29:54.214Z,1216.00
2019-03-27T12:30:59.721Z,1220.00
2019-03-27T12:32:05.232Z,1312.00
2019-03-27T12:33:10.746Z,1512.00
2019-03-27T12:34:16.261Z,1708.00
2019-03-27T12:35:21.769Z,1848.00
2019-03-27T12:36:27.286Z,2124.00
2019-03-27T12:37:32.780Z,1984.00
2019-03-27T12:38:38.310Z,1720.00
2019-03-27T12:39:43.811Z,1600.00
2019-03-27T12:40:49.325Z,1476.00
2019-03-27T12:41:54.842Z,1448.00
2019-03-27T12:43:00.356Z,1400.00
2019-03-27T12:44:05.861Z,1384.00
2019-03-27T12:45:11.383Z,1568.00
2019-03-27T12:46:16.893Z,1684.00
2019-03-27T12:47:22.409Z,1800.00
2019-03-27T12:48:27.914Z,2008.00
2019-03-27T12:49:33.424Z,2256.00
2019-03-27T12:50:38.938Z,2296.00
2019-03-27T12:51:44.465Z,2456.00
2019-03-27T12:52:49.960Z,2480.00
2019-03-27T12:53:55.475Z,2340.00
2019-03-27T12:55:00.999Z,2300.00
2019-03-27T12:56:06.497Z,2208.00
2019-03-27T12:57:12.012Z,2240.00
2019-03-27T12:58:17.525Z,2268.00
2019-03-27T12:59:23.090Z,2356.00
2019-03-27T13:00:28.574Z,2560.00
2019-03-27T13:01:34.063Z,2564.00
2019-03-27T13:02:39.573Z,2628.00
2019-03-27T13:03:45.181Z,2712.00
2019-03-27T13:04:50.600Z,2600.00
2019-03-27T13:05:56.118Z,2564.00
2019-03-27T13:07:01.631Z,2436.00
2019-03-27T13:08:07.146Z,2484.00
2019-03-27T13:09:12.672Z,2580.00
2019-03-27T13:10:18.164Z,2632.00
2019-03-27T13:11:23.673Z,2340.00
2019-03-27T13:12:29.184Z,2128.00
2019-03-27T13:13:34.700Z,1844.00
2019-03-27T13:14:40.212Z,1856.00
2019-03-27T13:15:45.731Z,1868.00
2019-03-27T13:16:52.413Z,1976.00
2019-03-27T13:17:56.752Z,1956.00
2019-03-27T13:19:02.273Z,1748.00
2019-03-27T13:20:07.784Z,1528.00
2019-03-27T13:21:25.534Z,1408.00
2019-03-27T13:22:18.825Z,1460.00
2019-03-27T13:23:24.318Z,1504.00
2019-03-27T13:24:29.834Z,1544.00
2019-03-27T13:25:35.353Z,1588.00
2019-03-27T13:26:40.862Z,1572.00
2019-03-27T13:27:47.604Z,1600.00
2019-03-27T13:28:51.893Z,1456.00
2019-03-27T13:29:57.402Z,1212.00
2019-03-27T13:31:02.918Z,1228.00
2019-03-27T13:32:08.425Z,832.00
2019-03-27T13:33:13.933Z,820.00
2019-03-27T13:34:19.454Z,656.00
2019-03-27T13:35:24.970Z,508.00
2019-03-27T13:36:30.476Z,504.00
2019-03-27T13:37:35.985Z,512.00
2019-03-27T13:38:41.506Z,500.00
2019-03-27T13:39:47.015Z,516.00
2019-03-27T13:40:52.530Z,624.00
2019-03-27T13:41:58.039Z,1084.00
2019-03-27T13:43:03.559Z,1828.00
2019-03-27T13:44:09.068Z,19680.00
2019-03-27T13:45:14.578Z,14556.00
2019-03-27T13:46:20.093Z,13100.00
2019-03-27T13:47:25.605Z,18848.00
2019-03-27T13:48:31.126Z,16512.00
2019-03-27T13:49:36.633Z,17024.00
2019-03-27T13:50:42.144Z,3908.00
2019-03-27T13:51:47.661Z,19488.00
2019-03-27T13:52:53.177Z,21504.00